Terminal Aerodrome Forecast
Issued by NWS

Home | Current Version | Previous Version | Text Only | Print | Product List | Glossary Off
Versions: 1 2 3 4 5 6 7 8 9 10 11 12 13 14 15 16 17 18

000
FTUS43 KABR 020523
TAFATY
TAF
KATY 020523Z 0206/0306 17014KT P6SM BKN250
     FM021400 18015G24KT P6SM FEW015 BKN100 OVC150
     FM030200 17013KT P6SM VCTS SCT050 BKN080CB OVC120=

USA.gov is the U.S. government's official web portal to all federal, state and local government web resources and services.